Warning: Javascript must be enabled to use all the features on this page!


Page Loading - Please Wait...

Click to hideNews Bulletins
  • Explore the NEW USGS National Water Dashboard interactive map to access real-time water data from over 13,500 stations nationwide.
  • Full News RSS icon
  • USGS has scheduled planned maintenance to our IT infrastructure, starting Tuesday, June 28, 2022, from 8:00-10:00am Eastern Daylight Time (EDT). During the maintenance period, there will be a short interruption in the availability of the most recent time-series data. Any backlog will be made available following conclusion of the scheduled maintenance.

Peak Streamflow for the Nation

USGS 16720000 Kawainui Stream nr Kamuela, HI

Hawaii County, Hawaii
Hydrologic Unit Code 20010000
Latitude  20°05'07.2", Longitude 155°40'52.2" NAD83
Drainage area 1.54  square miles
Gage datum 4,060 feet above LMSL
Output formats
Table
Graph
Tab-separated file
peakfq (watstore) format
Reselect output format
Water
Year
Date Gage
Height
(feet)
Stream-
flow
(cfs)
1964 1964-02-15 4.50 333
1965 1964-12-12 6.01 777
1966 1966-08-24 7.31 1,320
1967 1967-01-11 9.15 2,400
1968 1968-04-20 7.33 1,300
1969 1969-03-06 5.85 685
1970 1970-01-06 6.15 782
1971 1970-11-05 7.08 1,170
1972 1972-08-31 6.43 892
1973 1973-03-07 4.97 432
1974 1974-03-19 8.06 1,690
1975 1974-10-20 9.03 2,310
1976 1976-01-16 6.00 730
1977 1977-08-11 4.98 435
1978 1977-12-31 5.12 470
1979 1978-12-06 7.55 1,400
1980 1979-11-18 10.03 3,160
1981 1980-10-30 4.93 422
1982 1982-02-11 7.92 1,610
1983 1982-12-18 6.42 888
1984 1983-12-26 7.04 1,150
1985 1985-03-06 5.20 490
1986 1986-03-23 7.95 1,620
1987 1987-01-18 6.18 793
1988 1987-11-21 7.59 1,420
1989 1989-04-07 8.12 1,720
1990 1990-09-17 5.60 610
1991 1991-01-27 6.72 1,000
1992 1992-09-14 6.24 815
1993 1993-01-06 5.75 649
1994 1993-10-26 6.15 782
1995 1995-01-15 5.93 707
1996 1996-02-24 6.17 789
1997 1997-01-20 6.54 930
1998 1998-09-21 5.50 573
1999 1999-03-20 5.29 514
2000 1999-12-03 5.64 615
2001 2001-02-14 5.16 479
2002 2002-02-26 6.10 786
2003 2003-02-21 5.70 646
2004 2004-03-14 7.71 1,530
2005 2005-03-28 4.94 454
2006 2005-10-23 3.90 227
2007 2007-02-01 5.48 610
2008 2007-12-16 4.90 443
2009 2008-11-19 4.19 281
2010 2009-11-29 4.94 454
2011 2010-11-05 4.48 342
2012 2012-08-20 5.20 525
2013 2012-12-20 4.04 252
2014 2013-12-29 5.46 603
2015 2015-08-17 6.56 1,010
2016 2016-07-23 5.90 750
2017 2017-01-01 5.49 613
2018 2018-08-23 5.23 534
2019 2018-11-03 7.62 1,520
2020 2020-03-01 5.75 745
2021 2020-12-26 4.29 323